createdAt,value
2018-07-20T00:00:09.168Z,83.50
2018-07-20T00:02:37.556Z,83.30
2018-07-20T00:05:06.638Z,82.70
2018-07-20T00:07:35.088Z,83.20
2018-07-20T00:10:03.529Z,83.40
2018-07-20T00:12:32.000Z,83.10
2018-07-20T00:15:00.504Z,83.00
2018-07-20T00:17:29.007Z,83.30
2018-07-20T00:19:57.416Z,83.80
2018-07-20T00:22:25.880Z,84.10
2018-07-20T00:24:54.315Z,84.40
2018-07-20T00:27:22.779Z,83.30
2018-07-20T00:29:51.187Z,83.50
2018-07-20T00:32:19.627Z,83.30
2018-07-20T00:34:48.076Z,82.90
2018-07-20T00:37:16.489Z,82.50
2018-07-20T00:39:44.900Z,82.30
2018-07-20T00:42:13.379Z,84.40
2018-07-20T00:44:41.818Z,86.20
2018-07-20T00:47:10.232Z,84.70
2018-07-20T00:49:38.640Z,86.00
2018-07-20T00:52:07.168Z,85.30
2018-07-20T00:54:35.576Z,86.00
2018-07-20T00:57:04.032Z,85.90
2018-07-20T00:59:32.407Z,86.60
2018-07-20T01:02:00.836Z,88.10
2018-07-20T01:04:29.286Z,88.70
2018-07-20T01:06:57.708Z,88.80
2018-07-20T01:09:26.232Z,88.10
2018-07-20T01:11:54.832Z,88.20
2018-07-20T01:14:23.267Z,88.50
2018-07-20T01:16:52.008Z,88.70
2018-07-20T01:19:20.624Z,89.00
2018-07-20T01:21:49.071Z,90.20
2018-07-20T01:24:17.488Z,91.10
2018-07-20T01:26:45.879Z,91.40
2018-07-20T01:29:14.303Z,91.10
2018-07-20T01:31:42.801Z,92.00
2018-07-20T01:34:11.208Z,92.20
2018-07-20T01:36:39.679Z,92.60
2018-07-20T01:39:09.056Z,92.70
2018-07-20T01:41:37.747Z,92.90
2018-07-20T01:44:06.227Z,93.20
2018-07-20T01:46:34.656Z,93.40
2018-07-20T01:49:03.078Z,93.50
2018-07-20T01:51:31.487Z,93.60
2018-07-20T01:53:59.883Z,93.90
2018-07-20T01:56:28.415Z,93.50
2018-07-20T01:58:56.847Z,93.60
2018-07-20T02:03:54.432Z,94.20
2018-07-20T02:06:22.890Z,94.20
2018-07-20T02:08:51.319Z,94.10
2018-07-20T02:11:19.744Z,94.20
2018-07-20T02:13:48.164Z,94.00
2018-07-20T02:16:16.602Z,93.80
2018-07-20T02:18:44.995Z,93.60
2018-07-20T02:21:13.396Z,93.80
2018-07-20T02:23:41.830Z,94.00
2018-07-20T02:26:10.371Z,94.30
2018-07-20T02:28:38.791Z,94.50
2018-07-20T02:31:07.607Z,94.50
2018-07-20T02:33:36.139Z,94.50
2018-07-20T02:36:04.574Z,94.40
2018-07-20T02:38:32.988Z,94.40
2018-07-20T02:41:01.425Z,94.50
2018-07-20T02:43:29.803Z,94.30
2018-07-20T02:45:58.263Z,94.20
2018-07-20T02:48:26.668Z,94.30
2018-07-20T02:50:55.296Z,94.50
2018-07-20T02:53:23.754Z,94.60
2018-07-20T02:55:52.143Z,94.70
2018-07-20T02:58:20.664Z,94.80
2018-07-20T03:00:49.216Z,95.10
2018-07-20T03:03:17.640Z,95.30
2018-07-20T03:05:46.176Z,95.30
2018-07-20T03:08:14.593Z,95.30
2018-07-20T03:10:43.017Z,95.40
2018-07-20T03:13:11.412Z,95.40
2018-07-20T03:15:39.836Z,95.40
2018-07-20T03:18:08.228Z,95.30
2018-07-20T03:20:36.672Z,95.30
2018-07-20T03:23:05.246Z,95.30
2018-07-20T03:25:33.721Z,95.20
2018-07-20T03:28:02.212Z,95.30
2018-07-20T03:30:30.768Z,95.00
2018-07-20T03:32:59.350Z,94.90
2018-07-20T03:35:28.092Z,95.00
2018-07-20T03:37:56.493Z,94.90
2018-07-20T03:40:25.423Z,94.80
2018-07-20T03:42:53.963Z,94.70
2018-07-20T03:45:22.416Z,94.70
2018-07-20T03:47:50.831Z,94.30
2018-07-20T03:50:19.447Z,94.10
2018-07-20T03:52:48.104Z,94.00
2018-07-20T03:55:16.520Z,93.60
2018-07-20T03:57:44.946Z,93.30
2018-07-20T04:00:13.367Z,93.10
2018-07-20T04:02:41.839Z,93.20
2018-07-20T04:05:10.293Z,93.20
2018-07-20T04:07:38.751Z,93.30
2018-07-20T04:10:07.385Z,93.50
2018-07-20T04:12:35.757Z,93.50
2018-07-20T04:15:04.256Z,93.40
2018-07-20T04:17:37.867Z,93.50
2018-07-20T04:20:06.755Z,93.50
2018-07-20T04:22:35.213Z,93.30
2018-07-20T04:25:03.738Z,93.30
2018-07-20T04:27:32.274Z,93.40
2018-07-20T04:30:00.682Z,93.40
2018-07-20T04:32:29.135Z,93.60
2018-07-20T04:34:57.646Z,93.80
2018-07-20T04:37:26.313Z,93.90
2018-07-20T04:39:54.831Z,93.70
2018-07-20T04:42:23.299Z,94.00
2018-07-20T04:44:51.709Z,93.60
2018-07-20T04:47:20.125Z,93.50
2018-07-20T04:49:48.644Z,93.30
2018-07-20T04:52:17.048Z,93.60
2018-07-20T04:54:45.791Z,94.00
2018-07-20T04:57:14.252Z,94.70
2018-07-20T04:59:42.678Z,94.60
2018-07-20T05:02:11.096Z,95.10
2018-07-20T05:04:39.502Z,95.00
2018-07-20T05:07:08.090Z,94.90
2018-07-20T05:09:36.549Z,94.50
2018-07-20T05:12:05.162Z,94.60
2018-07-20T05:14:33.639Z,94.70
2018-07-20T05:17:02.020Z,94.70
2018-07-20T05:19:30.535Z,94.60
2018-07-20T05:21:58.974Z,94.30
2018-07-20T05:24:27.471Z,94.30
2018-07-20T05:26:55.995Z,94.40
2018-07-20T05:29:24.472Z,94.30
2018-07-20T05:31:52.943Z,94.20
2018-07-20T05:34:21.420Z,94.20
2018-07-20T05:36:49.971Z,93.90
2018-07-20T05:39:18.432Z,93.60
2018-07-20T05:41:46.907Z,92.90
2018-07-20T05:44:15.315Z,92.70
2018-07-20T05:46:43.723Z,92.30
2018-07-20T05:49:12.145Z,91.90
2018-07-20T05:51:40.579Z,91.50
2018-07-20T05:54:09.124Z,91.40
2018-07-20T05:56:37.544Z,91.20
2018-07-20T05:59:05.969Z,91.10
2018-07-20T06:01:34.367Z,90.90
2018-07-20T06:04:02.825Z,90.60
2018-07-20T06:06:31.209Z,90.60
2018-07-20T06:08:59.636Z,90.60
2018-07-20T06:11:29.320Z,90.20
2018-07-20T06:13:57.756Z,89.80
2018-07-20T06:16:26.216Z,89.00
2018-07-20T06:18:54.648Z,88.50
2018-07-20T06:21:23.084Z,88.30
2018-07-20T06:23:51.597Z,88.50
2018-07-20T06:26:19.976Z,87.70
2018-07-20T06:28:48.390Z,87.60
2018-07-20T06:31:16.800Z,87.60
2018-07-20T06:33:45.247Z,87.30
2018-07-20T06:36:13.688Z,87.00
2018-07-20T06:38:42.212Z,86.50
2018-07-20T06:41:10.668Z,85.40
2018-07-20T06:43:43.904Z,84.90
2018-07-20T06:46:12.442Z,84.20
2018-07-20T06:48:40.824Z,83.80
2018-07-20T06:51:09.610Z,83.20
2018-07-20T06:53:38.122Z,83.10
2018-07-20T06:56:06.556Z,82.90
2018-07-20T06:58:35.016Z,82.40
2018-07-20T07:01:03.611Z,82.00
2018-07-20T07:03:31.981Z,80.60
2018-07-20T07:06:00.432Z,80.30
2018-07-20T07:08:28.852Z,79.90
2018-07-20T07:10:57.233Z,79.50
2018-07-20T07:13:25.713Z,78.80
2018-07-20T07:15:54.165Z,78.20
2018-07-20T07:18:22.600Z,78.20
2018-07-20T07:20:51.156Z,77.40
2018-07-20T07:23:19.552Z,76.10
2018-07-20T07:25:48.071Z,75.30
2018-07-20T07:28:17.005Z,75.00
2018-07-20T07:30:45.372Z,74.90
2018-07-20T07:33:13.836Z,74.10
2018-07-20T07:35:42.322Z,74.40
2018-07-20T07:38:10.728Z,74.30
2018-07-20T07:40:39.141Z,74.90
2018-07-20T07:43:07.680Z,75.90
2018-07-20T07:45:36.099Z,76.00
2018-07-20T07:48:04.668Z,76.50
2018-07-20T07:50:33.110Z,75.70
2018-07-20T07:53:01.635Z,76.00
2018-07-20T07:55:30.048Z,75.00
2018-07-20T07:57:58.512Z,74.50
2018-07-20T08:00:26.914Z,73.00
2018-07-20T08:02:55.383Z,71.50
2018-07-20T08:05:23.804Z,69.40
2018-07-20T08:07:52.209Z,68.80
2018-07-20T08:10:20.625Z,66.80
2018-07-20T08:12:49.247Z,65.30
2018-07-20T08:15:17.675Z,65.20
2018-07-20T08:17:46.217Z,64.70
2018-07-20T08:20:14.655Z,65.40
2018-07-20T08:22:43.076Z,65.60
2018-07-20T08:25:12.007Z,67.20
2018-07-20T08:27:40.459Z,67.90
2018-07-20T08:30:08.929Z,68.20
2018-07-20T08:32:37.337Z,68.20
2018-07-20T08:35:06.019Z,68.70
2018-07-20T08:37:34.467Z,70.70
2018-07-20T08:40:02.885Z,70.10
2018-07-20T08:42:31.279Z,69.10
2018-07-20T08:44:59.707Z,66.70
2018-07-20T08:47:28.143Z,64.30
2018-07-20T08:49:56.615Z,63.10
2018-07-20T08:52:25.040Z,60.30
2018-07-20T08:54:54.886Z,58.90
2018-07-20T08:57:23.285Z,58.40
2018-07-20T08:59:51.746Z,57.10
2018-07-20T09:02:20.139Z,57.20
2018-07-20T09:04:48.592Z,56.90
2018-07-20T09:07:17.075Z,57.20
2018-07-20T09:09:45.507Z,57.90
2018-07-20T09:12:13.955Z,58.10
2018-07-20T09:14:42.451Z,57.30
2018-07-20T09:17:11.092Z,57.00
2018-07-20T09:19:39.530Z,56.30
2018-07-20T09:22:08.104Z,55.40
2018-07-20T09:24:37.039Z,54.90
2018-07-20T09:27:05.489Z,55.10
2018-07-20T09:29:33.909Z,53.30
2018-07-20T09:32:02.398Z,52.30
2018-07-20T09:34:30.820Z,52.60
2018-07-20T09:36:59.223Z,52.30
2018-07-20T09:39:27.601Z,51.90
2018-07-20T09:41:56.001Z,51.60
2018-07-20T09:44:24.462Z,50.80
2018-07-20T09:46:52.845Z,50.20
2018-07-20T09:49:21.253Z,49.30
2018-07-20T09:51:49.708Z,47.50
2018-07-20T09:54:18.473Z,45.90
2018-07-20T09:56:46.873Z,45.40
2018-07-20T09:59:15.272Z,45.20
2018-07-20T10:01:43.707Z,44.30
2018-07-20T10:04:12.227Z,45.50
2018-07-20T10:06:40.784Z,45.60
2018-07-20T10:09:11.192Z,45.10
2018-07-20T10:11:39.641Z,44.70
2018-07-20T10:14:08.127Z,44.70
2018-07-20T10:16:36.665Z,44.20
2018-07-20T10:19:05.485Z,43.80
2018-07-20T10:21:33.833Z,44.20
2018-07-20T10:24:02.241Z,44.40
2018-07-20T10:26:30.663Z,44.30
2018-07-20T10:28:59.637Z,43.70
2018-07-20T10:31:28.036Z,43.70
2018-07-20T10:33:56.563Z,43.30
2018-07-20T10:36:24.999Z,42.70
2018-07-20T10:38:53.415Z,42.50
2018-07-20T10:41:22.299Z,42.00
2018-07-20T10:43:50.771Z,41.60
2018-07-20T10:46:19.283Z,41.70
2018-07-20T10:48:47.739Z,40.70
2018-07-20T10:51:16.297Z,41.10
2018-07-20T10:53:44.747Z,41.40
2018-07-20T10:56:13.139Z,40.40
2018-07-20T10:58:44.062Z,40.50
2018-07-20T11:01:12.572Z,40.20
2018-07-20T11:03:42.135Z,40.20
2018-07-20T11:06:10.671Z,40.40
2018-07-20T11:08:39.157Z,40.80
2018-07-20T11:11:08.147Z,40.40
2018-07-20T11:13:36.713Z,39.40
2018-07-20T11:16:05.118Z,39.90
2018-07-20T11:18:34.071Z,39.90
2018-07-20T11:21:02.776Z,40.60
2018-07-20T11:23:31.335Z,40.40
2018-07-20T11:25:59.839Z,40.40
2018-07-20T11:28:28.331Z,40.60
2018-07-20T11:30:56.749Z,40.80
2018-07-20T11:33:25.162Z,40.60
2018-07-20T11:35:53.573Z,40.40
2018-07-20T11:38:22.087Z,40.00
2018-07-20T11:40:50.592Z,40.50
2018-07-20T11:43:19.017Z,40.90
2018-07-20T11:45:47.489Z,41.00
2018-07-20T11:48:15.920Z,41.30
2018-07-20T11:50:44.338Z,41.00
2018-07-20T11:53:12.770Z,40.60
2018-07-20T11:55:41.173Z,40.10
2018-07-20T11:58:09.617Z,40.50
2018-07-20T12:00:38.136Z,40.30
2018-07-20T12:03:06.633Z,40.10
2018-07-20T12:05:35.047Z,39.80
2018-07-20T12:08:03.539Z,39.90
2018-07-20T12:10:31.942Z,40.50
2018-07-20T12:13:00.381Z,40.50
2018-07-20T12:15:28.777Z,40.80
2018-07-20T12:17:57.270Z,40.80
2018-07-20T12:20:25.747Z,41.30
2018-07-20T12:22:54.217Z,41.20
2018-07-20T12:25:22.652Z,42.00
2018-07-20T12:27:51.088Z,41.90
2018-07-20T12:30:19.540Z,41.40
2018-07-20T12:32:48.050Z,41.80
2018-07-20T12:35:16.496Z,42.20
2018-07-20T12:37:44.916Z,42.30
2018-07-20T12:40:13.316Z,42.60
2018-07-20T12:42:41.743Z,42.70
2018-07-20T12:45:10.152Z,42.70
2018-07-20T12:47:38.589Z,43.30
2018-07-20T12:50:07.062Z,43.10
2018-07-20T12:52:35.481Z,42.80
2018-07-20T12:55:03.963Z,43.20
2018-07-20T12:57:32.395Z,43.10
2018-07-20T13:00:01.705Z,43.30
2018-07-20T13:02:30.167Z,43.20
2018-07-20T13:04:58.595Z,43.40
2018-07-20T13:07:26.995Z,43.20
2018-07-20T13:09:55.533Z,42.40
2018-07-20T13:12:23.981Z,42.00
2018-07-20T13:14:52.396Z,42.40
2018-07-20T13:17:20.820Z,42.70
2018-07-20T13:19:50.417Z,43.10
2018-07-20T13:22:19.044Z,43.20
2018-07-20T13:24:47.481Z,43.10
2018-07-20T13:27:16.513Z,43.20
2018-07-20T13:29:50.381Z,43.00
2018-07-20T13:32:18.779Z,42.80
2018-07-20T13:34:47.202Z,42.40
2018-07-20T13:37:15.619Z,42.40
2018-07-20T13:39:44.187Z,42.70
2018-07-20T13:42:12.613Z,42.60
2018-07-20T13:44:41.068Z,42.70
2018-07-20T13:47:09.596Z,42.60
2018-07-20T13:52:06.396Z,43.10
2018-07-20T13:54:34.879Z,43.10
2018-07-20T13:57:04.329Z,42.90
2018-07-20T13:59:32.749Z,43.00
2018-07-20T14:02:01.248Z,43.00
2018-07-20T14:04:29.659Z,43.00
2018-07-20T14:06:58.097Z,42.80
2018-07-20T14:09:26.520Z,43.10
2018-07-20T14:11:54.968Z,42.60
2018-07-20T14:14:24.155Z,42.50
2018-07-20T14:16:52.621Z,42.70
2018-07-20T14:19:22.076Z,42.20
2018-07-20T14:21:50.614Z,42.60
2018-07-20T14:24:19.034Z,41.90
2018-07-20T14:26:47.520Z,42.20
2018-07-20T14:29:16.040Z,42.20
2018-07-20T14:31:44.572Z,42.10
2018-07-20T14:34:12.869Z,42.00
2018-07-20T14:36:54.506Z,41.90
2018-07-20T14:39:32.417Z,42.00
2018-07-20T14:42:01.000Z,42.40
2018-07-20T14:44:38.476Z,42.40
2018-07-20T14:47:07.068Z,42.80
2018-07-20T14:49:35.572Z,43.00
2018-07-20T14:52:04.027Z,42.80
2018-07-20T14:54:36.676Z,42.70
2018-07-20T14:57:07.248Z,43.40
2018-07-20T15:02:16.014Z,42.80
2018-07-20T15:04:44.493Z,43.10
2018-07-20T15:07:13.619Z,43.80
2018-07-20T15:09:43.223Z,42.60
2018-07-20T15:12:11.966Z,43.20
2018-07-20T15:14:40.329Z,44.00
2018-07-20T15:17:08.737Z,43.30
2018-07-20T15:19:38.036Z,43.10
2018-07-20T15:22:06.847Z,43.20
2018-07-20T15:24:35.779Z,43.30
2018-07-20T15:27:04.451Z,43.40
2018-07-20T15:29:32.891Z,43.30
2018-07-20T15:32:01.444Z,43.10
2018-07-20T15:34:29.859Z,42.90
2018-07-20T15:36:58.369Z,43.00
2018-07-20T15:39:26.796Z,43.20
2018-07-20T15:41:55.196Z,43.40
2018-07-20T15:44:23.606Z,43.90
2018-07-20T15:46:52.464Z,44.20
2018-07-20T15:49:20.619Z,45.00
2018-07-20T15:53:35.462Z,44.60
2018-07-20T15:54:17.850Z,44.30
2018-07-20T15:56:46.198Z,44.40
2018-07-20T15:59:14.592Z,44.40
2018-07-20T16:01:42.988Z,44.20
2018-07-20T16:04:11.384Z,44.70
2018-07-20T16:06:39.836Z,44.80
2018-07-20T16:09:10.340Z,44.70
2018-07-20T16:11:38.843Z,44.80
2018-07-20T16:14:07.277Z,44.70
2018-07-20T16:16:35.900Z,44.70
2018-07-20T16:19:04.534Z,44.50
2018-07-20T16:21:33.145Z,44.40
2018-07-20T16:24:01.631Z,44.20
2018-07-20T16:26:30.290Z,44.50
2018-07-20T16:28:58.768Z,44.50
2018-07-20T16:31:28.092Z,44.60
2018-07-20T16:33:56.674Z,44.40
2018-07-20T16:36:25.108Z,44.80
2018-07-20T16:38:53.531Z,44.80
2018-07-20T16:41:22.049Z,45.30
2018-07-20T16:43:50.468Z,45.10
2018-07-20T16:46:19.353Z,44.80
2018-07-20T16:48:47.760Z,45.00
2018-07-20T16:51:16.189Z,45.10
2018-07-20T16:53:44.637Z,45.20
2018-07-20T16:56:13.076Z,45.10
2018-07-20T16:58:41.614Z,45.60
2018-07-20T17:01:10.577Z,45.40
2018-07-20T17:03:39.025Z,45.30
2018-07-20T17:06:08.832Z,45.30
2018-07-20T17:08:37.336Z,45.50
2018-07-20T17:11:08.645Z,45.70
2018-07-20T17:13:37.377Z,45.90
2018-07-20T17:16:06.031Z,46.10
2018-07-20T17:18:34.580Z,46.00
2018-07-20T17:21:25.353Z,46.20
2018-07-20T17:23:54.012Z,46.50
2018-07-20T17:26:22.648Z,46.40
2018-07-20T17:28:51.155Z,46.30
2018-07-20T17:31:19.572Z,46.50
2018-07-20T17:33:48.182Z,48.40
2018-07-20T17:36:16.652Z,47.70
2018-07-20T17:38:45.069Z,46.80
2018-07-20T17:41:13.460Z,46.80
2018-07-20T17:43:41.864Z,46.90
2018-07-20T17:46:10.273Z,47.00
2018-07-20T17:48:38.771Z,47.20
2018-07-20T17:51:07.256Z,48.20
2018-07-20T17:53:36.123Z,46.70
2018-07-20T17:56:04.530Z,46.60
2018-07-20T17:58:33.333Z,46.30
2018-07-20T18:01:01.809Z,45.80
2018-07-20T18:03:30.366Z,45.10
2018-07-20T18:05:58.816Z,44.50
2018-07-20T18:08:27.213Z,44.50
2018-07-20T18:10:55.821Z,45.10
2018-07-20T18:13:24.352Z,46.40
2018-07-20T18:15:53.260Z,48.10
2018-07-20T18:18:21.680Z,53.60
2018-07-20T18:20:50.081Z,56.90
2018-07-20T18:23:18.496Z,61.70
2018-07-20T18:25:47.028Z,67.00
2018-07-20T18:28:15.574Z,72.20
2018-07-20T18:30:52.987Z,76.70
2018-07-20T18:33:21.603Z,79.70
2018-07-20T18:35:50.044Z,80.20
2018-07-20T18:38:18.473Z,81.50
2018-07-20T18:40:47.041Z,82.40
2018-07-20T18:43:15.451Z,85.10
2018-07-20T18:45:43.943Z,87.60
2018-07-20T18:48:12.424Z,86.80
2018-07-20T18:50:40.931Z,86.20
2018-07-20T18:53:09.362Z,85.90
2018-07-20T18:55:37.808Z,85.50
2018-07-20T18:58:06.552Z,89.80
2018-07-20T19:00:35.015Z,91.50
2018-07-20T19:03:03.463Z,91.70
2018-07-20T19:05:31.935Z,92.40
2018-07-20T19:08:00.395Z,91.20
2018-07-20T19:10:28.803Z,90.60
2018-07-20T19:12:57.249Z,90.90
2018-07-20T19:15:26.851Z,91.60
2018-07-20T19:17:55.331Z,91.00
2018-07-20T19:20:23.725Z,90.90
2018-07-20T19:22:52.432Z,86.10
2018-07-20T19:25:20.897Z,84.10
2018-07-20T19:27:49.353Z,87.60
2018-07-20T19:30:17.783Z,91.10
2018-07-20T19:32:46.428Z,92.60
2018-07-20T19:35:14.912Z,87.30
2018-07-20T19:37:43.471Z,86.10
2018-07-20T19:40:11.867Z,87.60
2018-07-20T19:42:40.263Z,85.00
2018-07-20T19:45:08.805Z,82.90
2018-07-20T19:47:37.432Z,82.80
2018-07-20T19:50:06.113Z,82.90
2018-07-20T19:52:34.575Z,80.70
2018-07-20T19:55:03.051Z,80.00
2018-07-20T19:57:31.427Z,79.90
2018-07-20T19:59:59.879Z,81.70
2018-07-20T20:02:28.391Z,83.00
2018-07-20T20:04:58.149Z,87.80
2018-07-20T20:07:26.997Z,88.90
2018-07-20T20:09:55.440Z,90.20
2018-07-20T20:12:23.980Z,89.70
2018-07-20T20:14:52.384Z,88.40
2018-07-20T20:17:20.843Z,89.70
2018-07-20T20:19:49.776Z,89.30
2018-07-20T20:22:18.256Z,89.00
2018-07-20T20:24:46.668Z,89.50
2018-07-20T20:27:15.142Z,89.90
2018-07-20T20:29:43.608Z,85.20
2018-07-20T20:32:12.100Z,85.80
2018-07-20T20:34:40.840Z,85.60
2018-07-20T20:37:09.476Z,86.10
2018-07-20T20:39:37.924Z,86.90
2018-07-20T20:42:06.510Z,87.70
2018-07-20T20:44:34.933Z,90.60
2018-07-20T20:47:03.467Z,90.70
2018-07-20T20:49:32.140Z,91.60
2018-07-20T20:52:00.603Z,91.20
2018-07-20T20:54:29.047Z,91.40
2018-07-20T20:56:57.683Z,91.30
2018-07-20T20:59:26.128Z,88.20
2018-07-20T21:01:54.800Z,87.70
2018-07-20T21:04:23.640Z,87.40
2018-07-20T21:06:52.067Z,88.20
2018-07-20T21:09:20.514Z,88.60
2018-07-20T21:11:49.058Z,89.40
2018-07-20T21:14:21.375Z,88.50
2018-07-20T21:16:50.053Z,87.90
2018-07-20T21:19:18.508Z,88.80
2018-07-20T21:21:46.935Z,88.30
2018-07-20T21:24:15.365Z,88.00
2018-07-20T21:26:43.906Z,88.00
2018-07-20T21:29:12.757Z,86.90
2018-07-20T21:31:41.152Z,86.10
2018-07-20T21:34:10.171Z,86.80
2018-07-20T21:36:39.105Z,86.10
2018-07-20T21:39:09.775Z,85.90
2018-07-20T21:41:38.555Z,84.80
2018-07-20T21:44:06.995Z,85.70
2018-07-20T21:46:35.436Z,84.50
2018-07-20T21:49:03.878Z,85.20
2018-07-20T21:51:33.195Z,84.90
2018-07-20T21:54:01.682Z,83.90
2018-07-20T21:56:30.383Z,86.10
2018-07-20T21:58:58.924Z,87.10
2018-07-20T22:01:27.628Z,86.20
2018-07-20T22:03:56.040Z,84.90
2018-07-20T22:06:24.560Z,83.20
2018-07-20T22:08:53.000Z,83.10
2018-07-20T22:11:21.411Z,83.00
2018-07-20T22:13:50.060Z,82.60
2018-07-20T22:16:18.988Z,82.30
2018-07-20T22:18:47.391Z,82.10
2018-07-20T22:21:16.278Z,81.80
2018-07-20T22:23:44.848Z,81.80
2018-07-20T22:26:13.720Z,81.60
2018-07-20T22:28:42.164Z,81.50
2018-07-20T22:31:10.718Z,81.50
2018-07-20T22:33:39.095Z,81.60
2018-07-20T22:36:07.491Z,81.90
2018-07-20T22:38:35.912Z,82.00
2018-07-20T22:41:04.550Z,81.80
2018-07-20T22:43:32.962Z,81.80
2018-07-20T22:46:01.378Z,81.60
2018-07-20T22:48:29.767Z,81.70
2018-07-20T22:50:58.342Z,81.30
2018-07-20T22:53:26.746Z,80.90
2018-07-20T22:55:55.223Z,81.10
2018-07-20T22:58:23.674Z,81.20
2018-07-20T23:00:52.161Z,81.50
2018-07-20T23:03:20.572Z,81.80
2018-07-20T23:05:49.970Z,82.00
2018-07-20T23:08:18.350Z,82.10
2018-07-20T23:10:46.772Z,82.20
2018-07-20T23:13:15.898Z,82.30
2018-07-20T23:15:44.307Z,82.20
2018-07-20T23:18:12.783Z,82.40
2018-07-20T23:20:41.226Z,82.60
2018-07-20T23:23:09.606Z,82.90
2018-07-20T23:25:37.984Z,83.00
2018-07-20T23:28:06.838Z,82.80
2018-07-20T23:30:35.269Z,82.80
2018-07-20T23:33:03.705Z,82.40
2018-07-20T23:35:32.080Z,82.20
2018-07-20T23:38:00.529Z,81.80
2018-07-20T23:40:28.926Z,81.40
2018-07-20T23:42:57.363Z,81.40
2018-07-20T23:45:25.738Z,81.30
2018-07-20T23:47:54.167Z,81.30
2018-07-20T23:50:22.600Z,80.90
2018-07-20T23:52:51.079Z,81.50
2018-07-20T23:55:19.510Z,80.90
2018-07-20T23:57:47.934Z,81.20
